Time;durP1;ratioP1;P1;durP2;ratioP2;P2;SDS_P1;SDS_P2;PMS_P1;PMS_P2;Temp;Humidity;BMP_temperature;BMP_pressure;BME280_temperature;BME280_humidity;BME280_pressure;Samples;Min_cycle;Max_cycle;Signal;HPM_P1;HPM_P2
2024/01/31 00:00:33;;;;;;;15.98;7.60;;;;;;;9.64;68.59;103339.66;5063592;28;20049;-61
2024/01/31 00:03:01;;;;;;;16.67;7.28;;;;;;;9.64;68.60;103346.88;5065919;28;20049;-62
2024/01/31 00:05:30;;;;;;;17.35;7.72;;;;;;;9.64;68.33;103341.50;5064579;28;20056;-62
2024/01/31 00:07:58;;;;;;;20.25;6.75;;;;;;;9.63;68.61;103342.50;5049863;28;20056;-63
2024/01/31 00:10:25;;;;;;;13.70;7.32;;;;;;;9.63;68.75;103347.88;5063970;28;20052;-62
2024/01/31 00:12:53;;;;;;;12.73;7.25;;;;;;;9.61;68.67;103345.34;5062850;28;20136;-62
2024/01/31 00:15:21;;;;;;;13.45;6.57;;;;;;;9.62;68.55;103343.50;5062859;28;20052;-62
2024/01/31 00:17:49;;;;;;;12.65;6.30;;;;;;;9.61;68.31;103344.50;5055324;28;20080;-62
2024/01/31 00:20:17;;;;;;;16.90;7.45;;;;;;;9.60;68.65;103353.56;5056557;28;20052;-64
2024/01/31 00:22:46;;;;;;;15.32;7.40;;;;;;;9.60;68.57;103348.19;5059030;28;20048;-63
2024/01/31 00:25:14;;;;;;;12.18;6.47;;;;;;;9.59;68.32;103355.41;5065222;28;20306;-62
2024/01/31 00:27:42;;;;;;;13.00;5.53;;;;;;;9.58;68.65;103355.56;5060706;28;20163;-63
2024/01/31 00:30:11;;;;;;;16.52;6.60;;;;;;;9.58;68.23;103364.44;5063465;28;20049;-61
2024/01/31 00:32:38;;;;;;;20.70;6.50;;;;;;;9.57;68.66;103365.44;5063909;28;20057;-62
2024/01/31 00:35:08;;;;;;;15.82;6.30;;;;;;;9.57;68.67;103369.97;5063927;28;20123;-61
2024/01/31 00:37:36;;;;;;;12.80;5.82;;;;;;;9.54;68.35;103363.06;5065346;28;20064;-61
2024/01/31 00:40:06;;;;;;;11.93;5.38;;;;;;;9.54;68.53;103376.50;5064775;28;20052;-62
2024/01/31 00:42:34;;;;;;;16.80;6.18;;;;;;;9.54;68.56;103376.50;5054685;28;20052;-61
2024/01/31 00:45:03;;;;;;;13.73;5.50;;;;;;;9.54;68.35;103384.53;5062620;28;20135;-62
2024/01/31 00:47:30;;;;;;;14.43;5.25;;;;;;;9.53;68.75;103371.28;5063708;28;20048;-62
2024/01/31 00:49:59;;;;;;;14.63;5.95;;;;;;;9.53;68.56;103376.63;5065384;28;20059;-63
2024/01/31 00:52:27;;;;;;;12.07;5.25;;;;;;;9.51;68.82;103384.00;5062227;28;20041;-63
2024/01/31 00:54:55;;;;;;;17.52;5.80;;;;;;;9.53;68.29;103380.16;5057768;28;20041;-62
2024/01/31 00:57:24;;;;;;;13.98;5.80;;;;;;;9.51;68.28;103387.53;5062904;28;20106;-63
2024/01/31 00:59:52;;;;;;;16.00;5.43;;;;;;;9.50;68.11;103385.84;5065272;28;20050;-62
2024/01/31 01:02:19;;;;;;;14.20;6.03;;;;;;;9.49;68.50;103381.47;5056059;28;20045;-63
2024/01/31 01:04:47;;;;;;;15.98;5.50;;;;;;;9.47;68.55;103378.09;5058722;28;20045;-62
2024/01/31 01:07:15;;;;;;;21.55;6.40;;;;;;;9.44;68.12;103386.44;5065164;28;20059;-61
2024/01/31 01:09:43;;;;;;;13.02;4.70;;;;;;;9.42;68.27;103394.66;5063805;28;20056;-62
2024/01/31 01:12:11;;;;;;;13.90;5.25;;;;;;;9.41;68.05;103397.50;5063117;28;20049;-63
2024/01/31 01:14:40;;;;;;;21.40;5.78;;;;;;;9.41;68.01;103392.13;5047007;28;20049;-62
2024/01/31 01:17:08;;;;;;;12.77;4.10;;;;;;;9.38;68.41;103401.31;5064563;28;20115;-62
2024/01/31 01:19:36;;;;;;;10.60;4.18;;;;;;;9.38;68.23;103401.31;5065110;28;20056;-62
2024/01/31 01:22:04;;;;;;;9.63;3.85;;;;;;;9.40;67.79;103395.81;5057724;28;20057;-62
2024/01/31 01:24:32;;;;;;;13.85;4.38;;;;;;;9.38;67.62;103392.44;5056436;28;20055;-62
2024/01/31 01:27:00;;;;;;;11.88;4.03;;;;;;;9.38;67.76;103389.75;5065847;28;20151;-61
2024/01/31 01:29:28;;;;;;;11.00;3.70;;;;;;;9.37;67.62;103399.63;5065629;28;20467;-61
2024/01/31 01:31:57;;;;;;;11.90;4.03;;;;;;;9.37;67.46;103398.78;5063582;28;20053;-61
2024/01/31 01:34:25;;;;;;;10.35;3.30;;;;;;;9.36;67.49;103394.41;5064741;28;20068;-61
2024/01/31 01:36:53;;;;;;;8.35;3.25;;;;;;;9.36;67.84;103392.56;5064741;28;20094;-62
2024/01/31 01:39:21;;;;;;;6.63;2.80;;;;;;;9.38;68.04;103395.09;5061528;28;20053;-62
2024/01/31 01:41:49;;;;;;;10.60;3.10;;;;;;;9.38;67.84;103400.47;5062272;28;20060;-63
2024/01/31 01:44:17;;;;;;;13.30;3.53;;;;;;;9.38;67.79;103395.97;5061344;28;20080;-61
2024/01/31 01:46:45;;;;;;;11.68;2.90;;;;;;;9.38;67.36;103401.31;5057597;28;20087;-61
2024/01/31 01:49:15;;;;;;;10.48;3.35;;;;;;;9.36;67.55;103400.63;5049937;28;20049;-62
2024/01/31 01:51:44;;;;;;;9.60;2.97;;;;;;;9.37;67.52;103393.41;5055142;28;20057;-61
2024/01/31 01:54:13;;;;;;;6.78;2.83;;;;;;;9.36;67.53;103402.47;5064052;28;20079;-62
2024/01/31 01:56:44;;;;;;;6.80;2.78;;;;;;;9.34;67.84;103405.31;5050479;28;20061;-62
2024/01/31 01:59:13;;;;;;;11.00;3.63;;;;;;;9.35;67.67;103395.41;5058757;28;20045;-62
2024/01/31 02:01:43;;;;;;;10.65;3.10;;;;;;;9.32;67.61;103388.50;5060759;28;20045;-63
2024/01/31 02:04:10;;;;;;;10.77;3.25;;;;;;;9.33;67.89;103398.25;5057264;28;20128;-63
2024/01/31 02:06:40;;;;;;;10.27;2.78;;;;;;;9.32;67.46;103385.81;5064862;28;20045;-61
2024/01/31 02:09:09;;;;;;;8.85;2.85;;;;;;;9.33;67.53;103398.25;5060799;28;20045;-61
2024/01/31 02:11:37;;;;;;;10.48;3.33;;;;;;;9.31;67.66;103394.88;5054996;28;20050;-62
2024/01/31 02:14:04;;;;;;;5.13;2.50;;;;;;;9.28;67.63;103395.19;5063927;28;20063;-62
2024/01/31 02:16:32;;;;;;;7.20;2.28;;;;;;;9.29;68.08;103390.66;5062913;28;20041;-62
2024/01/31 02:19:00;;;;;;;10.25;2.85;;;;;;;9.29;67.76;103394.19;5055908;28;20136;-62
2024/01/31 02:21:29;;;;;;;10.23;2.78;;;;;;;9.28;67.44;103388.97;5053699;28;20079;-62
2024/01/31 02:23:58;;;;;;;8.88;2.47;;;;;;;9.29;67.71;103390.66;5062653;28;20053;-62
2024/01/31 02:26:26;;;;;;;8.43;3.15;;;;;;;9.28;67.95;103387.13;5064743;28;20110;-62
2024/01/31 02:28:53;;;;;;;7.50;3.10;;;;;;;9.27;67.50;103387.28;5057684;28;20075;-62
2024/01/31 02:31:21;;;;;;;9.68;2.95;;;;;;;9.28;67.61;103391.66;5051925;28;20463;-62
2024/01/31 02:33:49;;;;;;;9.10;3.10;;;;;;;9.27;68.19;103388.13;5062429;28;20158;-61
2024/01/31 02:36:17;;;;;;;6.32;2.63;;;;;;;9.26;68.20;103391.78;5063392;28;20387;-61
2024/01/31 02:38:45;;;;;;;12.18;3.42;;;;;;;9.25;68.19;103387.44;5063512;28;20087;-61
2024/01/31 02:41:14;;;;;;;9.82;2.90;;;;;;;9.25;67.85;103389.25;5061584;28;20041;-62
2024/01/31 02:43:43;;;;;;;12.93;3.95;;;;;;;9.25;68.07;103392.78;5058621;28;20116;-62
2024/01/31 02:46:10;;;;;;;7.28;4.57;;;;;;;9.25;67.94;103391.94;5062931;28;20047;-62
2024/01/31 02:48:38;;;;;;;11.23;3.80;;;;;;;9.24;68.29;103395.63;5062198;28;20065;-62
2024/01/31 02:51:06;;;;;;;11.95;4.50;;;;;;;9.23;67.82;103385.88;5063224;28;20112;-61
2024/01/31 02:53:34;;;;;;;12.13;3.67;;;;;;;9.22;68.01;103387.72;5062111;28;20114;-62
2024/01/31 02:56:02;;;;;;;10.10;3.45;;;;;;;9.23;68.27;103385.88;5061576;28;20063;-62
2024/01/31 02:58:31;;;;;;;12.57;3.72;;;;;;;9.22;67.92;103385.03;5062184;28;20045;-61
2024/01/31 03:01:00;;;;;;;12.93;4.25;;;;;;;9.22;68.11;103379.69;5054299;28;20050;-62
2024/01/31 03:03:28;;;;;;;13.00;5.30;;;;;;;9.20;68.16;103376.31;5058010;28;20045;-61
2024/01/31 03:05:56;;;;;;;10.90;4.20;;;;;;;9.21;68.52;103372.63;5063582;28;20057;-62
2024/01/31 03:08:24;;;;;;;14.38;4.53;;;;;;;9.21;68.39;103363.72;5056028;28;20052;-62
2024/01/31 03:10:51;;;;;;;10.15;3.72;;;;;;;9.22;68.53;103370.78;5064281;28;20126;-62
2024/01/31 03:13:19;;;;;;;10.20;4.22;;;;;;;9.22;68.30;103368.09;5062309;28;20049;-62
2024/01/31 03:15:48;;;;;;;9.40;4.03;;;;;;;9.23;68.29;103361.75;5058462;28;20047;-62
2024/01/31 03:18:16;;;;;;;10.80;5.05;;;;;;;9.23;68.54;103361.75;5052408;28;20114;-63
2024/01/31 03:20:44;;;;;;;11.02;4.13;;;;;;;9.21;68.61;103359.22;5055553;28;20483;-62
2024/01/31 03:23:13;;;;;;;12.75;4.65;;;;;;;9.23;68.44;103359.06;5059938;28;20103;-62
2024/01/31 03:25:41;;;;;;;14.63;4.38;;;;;;;9.22;68.48;103354.69;5063841;28;20098;-61
2024/01/31 03:28:09;;;;;;;11.80;4.90;;;;;;;9.22;68.14;103362.72;5061269;28;20053;-62
2024/01/31 03:30:37;;;;;;;11.63;4.88;;;;;;;9.14;68.19;103350.91;5064994;28;20156;-61
2024/01/31 03:33:06;;;;;;;17.13;4.88;;;;;;;9.21;68.17;103353.84;5066256;28;20049;-63
2024/01/31 03:35:34;;;;;;;11.57;5.40;;;;;;;9.20;68.20;103349.47;5063778;28;20045;-62
2024/01/31 03:38:02;;;;;;;10.27;5.65;;;;;;;9.22;68.50;103355.53;5061053;28;20102;-62
2024/01/31 03:40:30;;;;;;;13.48;4.78;;;;;;;9.13;68.62;103337.66;5067792;28;20045;-63
2024/01/31 03:42:58;;;;;;;9.82;4.40;;;;;;;9.20;68.31;103348.63;5064714;28;20071;-63
2024/01/31 03:45:27;;;;;;;13.45;4.70;;;;;;;9.20;68.28;103344.09;5065462;28;20052;-63
2024/01/31 03:47:55;;;;;;;8.20;4.75;;;;;;;9.20;68.15;103345.94;5060357;28;20041;-63
2024/01/31 03:50:24;;;;;;;10.90;5.57;;;;;;;9.20;68.41;103348.63;5060674;28;20051;-61
2024/01/31 03:52:52;;;;;;;13.07;5.57;;;;;;;9.20;68.33;103352.16;5066053;28;20057;-62
2024/01/31 03:55:20;;;;;;;14.55;4.95;;;;;;;9.19;68.28;103339.72;5066725;28;20124;-62
2024/01/31 03:57:47;;;;;;;10.93;5.60;;;;;;;9.19;68.29;103338.88;5063964;28;20060;-61
2024/01/31 04:00:16;;;;;;;17.55;5.68;;;;;;;9.19;68.67;103345.09;5051444;28;20467;-62
2024/01/31 04:02:44;;;;;;;11.48;5.05;;;;;;;9.19;68.61;103344.25;5062017;28;20053;-61
2024/01/31 04:05:11;;;;;;;15.43;6.18;;;;;;;9.18;68.42;103335.34;5066724;28;20040;-62
2024/01/31 04:07:43;;;;;;;13.13;4.72;;;;;;;9.18;68.40;103346.09;5065845;28;20048;-61
2024/01/31 04:10:14;;;;;;;10.88;5.13;;;;;;;9.18;68.50;103342.56;5066660;28;20178;-61
2024/01/31 04:12:42;;;;;;;12.98;6.28;;;;;;;9.17;68.27;103347.09;5066016;28;20056;-63
2024/01/31 04:15:10;;;;;;;11.75;5.20;;;;;;;9.17;68.45;103335.50;5062921;28;20061;-61
2024/01/31 04:17:38;;;;;;;18.85;6.90;;;;;;;9.15;68.85;103338.34;5050563;28;20053;-62
2024/01/31 04:20:07;;;;;;;12.25;6.05;;;;;;;9.16;68.43;103339.19;5066798;28;20054;-61
2024/01/31 04:22:35;;;;;;;9.60;5.32;;;;;;;9.13;68.50;103329.59;5062923;28;20040;-62
2024/01/31 04:25:05;;;;;;;15.68;6.15;;;;;;;9.13;68.56;103341.19;5062119;28;20078;-62
2024/01/31 04:27:33;;;;;;;10.20;5.13;;;;;;;9.12;68.77;103339.50;5064460;28;20139;-62
2024/01/31 04:30:00;;;;;;;13.63;5.85;;;;;;;9.11;68.35;103342.31;5050038;28;20073;-62
2024/01/31 04:32:28;;;;;;;11.85;6.05;;;;;;;9.12;68.62;103344.00;5048767;28;20110;-62
2024/01/31 04:34:56;;;;;;;16.58;6.30;;;;;;;9.11;68.85;103343.16;5059360;28;20048;-61
2024/01/31 04:37:24;;;;;;;15.95;8.02;;;;;;;9.10;68.73;103346.84;5065135;28;20056;-63
2024/01/31 04:39:52;;;;;;;12.93;5.78;;;;;;;9.09;68.44;103342.47;5062194;28;20060;-62
2024/01/31 04:42:21;;;;;;;16.33;6.38;;;;;;;9.09;69.13;103347.00;5066398;28;20106;-61
2024/01/31 04:44:49;;;;;;;13.40;6.00;;;;;;;9.09;69.04;103339.78;5063707;28;20045;-62
2024/01/31 04:47:17;;;;;;;12.95;5.75;;;;;;;9.09;68.56;103347.00;5059559;28;20049;-63
2024/01/31 04:49:45;;;;;;;13.02;6.18;;;;;;;9.08;68.72;103346.16;5061169;28;20052;-62
2024/01/31 04:52:13;;;;;;;14.27;6.15;;;;;;;9.08;68.60;103337.25;5066264;28;20489;-62
2024/01/31 04:54:40;;;;;;;14.43;5.95;;;;;;;9.07;68.58;103335.56;5065803;28;20049;-61
2024/01/31 04:57:08;;;;;;;10.95;6.00;;;;;;;9.06;68.94;103332.06;5054240;28;20080;-61
2024/01/31 04:59:39;;;;;;;12.73;5.93;;;;;;;9.06;68.91;103336.56;5056627;28;20045;-62
2024/01/31 05:02:07;;;;;;;17.75;7.50;;;;;;;9.05;68.83;103330.34;5065384;28;20045;-62
2024/01/31 05:04:36;;;;;;;12.95;6.68;;;;;;;9.06;69.18;103331.19;5062675;28;20049;-62
2024/01/31 05:07:04;;;;;;;13.98;7.20;;;;;;;9.04;68.97;103327.81;5064997;28;20410;-62
2024/01/31 05:09:33;;;;;;;13.73;6.68;;;;;;;9.05;69.01;103330.34;5064655;28;20069;-61
2024/01/31 05:12:00;;;;;;;13.07;6.22;;;;;;;9.03;68.85;103329.66;5066476;28;20186;-61
2024/01/31 05:14:28;;;;;;;15.55;6.68;;;;;;;9.03;68.68;103323.47;5056434;28;20065;-61
2024/01/31 05:16:57;;;;;;;13.38;6.85;;;;;;;9.03;68.56;103326.13;5056003;28;20049;-61
2024/01/31 05:19:25;;;;;;;16.02;7.40;;;;;;;9.02;69.11;103333.34;5063088;28;20398;-61
2024/01/31 05:21:57;;;;;;;15.82;7.45;;;;;;;9.02;68.72;103329.81;5066048;28;20053;-61
2024/01/31 05:24:25;;;;;;;18.15;7.55;;;;;;;9.01;68.65;103325.44;5048351;28;20088;-61
2024/01/31 05:26:53;;;;;;;12.48;6.90;;;;;;;9.01;69.03;103326.28;5066237;28;20041;-61
2024/01/31 05:29:21;;;;;;;15.55;6.85;;;;;;;9.01;68.94;103323.63;5064226;28;20490;-61
2024/01/31 05:31:48;;;;;;;11.60;6.78;;;;;;;8.99;69.02;103322.91;5065520;28;20048;-62
2024/01/31 05:34:18;;;;;;;13.48;7.70;;;;;;;9.01;68.89;103325.44;5049421;28;20049;-62
2024/01/31 05:36:45;;;;;;;12.02;6.93;;;;;;;9.01;69.10;103322.75;5055028;28;20045;-62
2024/01/31 05:39:13;;;;;;;15.00;7.95;;;;;;;9.01;68.50;103328.97;5056981;28;20053;-63
2024/01/31 05:41:42;;;;;;;15.65;7.97;;;;;;;9.01;68.88;103326.28;5062020;28;20076;-63
2024/01/31 05:44:10;;;;;;;15.18;7.18;;;;;;;9.01;68.96;103322.75;5063283;28;20071;-62
2024/01/31 05:46:38;;;;;;;13.60;7.10;;;;;;;9.00;68.72;103323.75;5059048;28;20053;-62
2024/01/31 05:49:06;;;;;;;14.48;7.20;;;;;;;9.00;69.35;103329.13;5061253;28;20055;-63
2024/01/31 05:51:35;;;;;;;19.75;7.57;;;;;;;9.01;69.07;103325.44;5058458;28;20050;-63
2024/01/31 05:54:03;;;;;;;17.10;8.50;;;;;;;9.00;69.02;103331.81;5060382;28;20044;-62
2024/01/31 05:56:31;;;;;;;18.52;7.30;;;;;;;9.01;68.40;103328.13;5064446;28;20053;-64
2024/01/31 05:58:59;;;;;;;13.32;7.65;;;;;;;9.00;68.58;103329.97;5062130;28;20052;-61
2024/01/31 06:01:27;;;;;;;17.73;8.80;;;;;;;9.00;68.59;103327.28;5063336;28;20040;-62
2024/01/31 06:03:55;;;;;;;13.20;7.72;;;;;;;9.00;68.60;103329.13;5058104;28;20046;-62
2024/01/31 06:06:23;;;;;;;14.10;7.68;;;;;;;9.00;68.93;103319.25;5062150;28;20052;-63
2024/01/31 06:08:52;;;;;;;20.55;8.30;;;;;;;9.00;68.64;103318.41;5061286;28;20631;-62
2024/01/31 06:11:20;;;;;;;15.07;8.30;;;;;;;9.00;68.55;103329.13;5058812;28;20045;-63
2024/01/31 06:13:48;;;;;;;23.50;9.50;;;;;;;9.00;68.86;103337.16;5061847;28;20081;-61
2024/01/31 06:16:16;;;;;;;13.27;8.10;;;;;;;9.00;68.46;103342.53;5060092;28;20044;-60
2024/01/31 06:18:43;;;;;;;13.90;8.88;;;;;;;9.00;69.28;103342.53;5059434;28;20052;-62
2024/01/31 06:21:11;;;;;;;19.27;8.80;;;;;;;8.98;69.23;103334.63;5062943;28;20083;-64
2024/01/31 06:23:39;;;;;;;12.43;9.32;;;;;;;8.98;69.08;103323.91;4705056;28;10000160;-64
2024/01/31 06:26:08;;;;;;;19.90;8.57;;;;;;;8.98;68.76;103326.59;5060206;28;20053;-63
2024/01/31 06:28:38;;;;;;;21.98;9.13;;;;;;;8.94;69.40;103322.53;5060132;28;20052;-66
2024/01/31 06:31:14;;;;;;;13.85;7.78;;;;;;;8.97;69.13;103319.53;5058472;28;20044;-64
2024/01/31 06:33:42;;;;;;;13.60;8.03;;;;;;;8.96;69.14;103317.84;5051452;28;20080;-64
2024/01/31 06:36:10;;;;;;;14.25;8.27;;;;;;;8.96;69.07;103309.81;5054369;28;20068;-63
2024/01/31 06:38:38;;;;;;;16.77;8.65;;;;;;;8.95;68.56;103307.28;5057367;28;20118;-62
2024/01/31 06:41:06;;;;;;;15.40;9.05;;;;;;;8.94;68.79;103306.44;5058486;28;20048;-63
2024/01/31 06:43:35;;;;;;;21.70;8.75;;;;;;;8.92;68.87;103300.38;5054681;28;20156;-62
2024/01/31 06:46:03;;;;;;;15.38;8.18;;;;;;;8.93;69.20;103299.38;5061002;28;20092;-63
2024/01/31 06:48:31;;;;;;;15.65;8.65;;;;;;;8.92;69.46;103300.38;5051526;28;20057;-62
2024/01/31 06:50:59;;;;;;;16.98;8.65;;;;;;;8.93;68.94;103290.50;5051563;28;20056;-63
2024/01/31 06:53:29;;;;;;;16.15;9.02;;;;;;;8.91;68.88;103282.59;5053512;28;20067;-64
2024/01/31 06:55:56;;;;;;;16.38;8.70;;;;;;;8.92;69.30;103278.06;5057661;28;20048;-62
2024/01/31 06:58:24;;;;;;;16.45;8.77;;;;;;;8.91;68.60;103276.38;5057775;28;20574;-62
2024/01/31 07:00:57;;;;;;;17.02;8.70;;;;;;;8.89;69.32;103279.22;5055196;28;20056;-62
2024/01/31 07:03:25;;;;;;;15.93;7.93;;;;;;;8.91;68.60;103281.75;5045178;28;20044;-61
2024/01/31 07:05:53;;;;;;;17.45;8.88;;;;;;;8.89;68.96;103283.75;5055366;28;20049;-62
2024/01/31 07:08:21;;;;;;;18.50;8.93;;;;;;;8.90;68.79;103277.38;5054980;28;20040;-63
2024/01/31 07:10:49;;;;;;;19.33;9.82;;;;;;;8.90;68.68;103294.31;5064222;28;20103;-62
2024/01/31 07:13:16;;;;;;;15.60;8.65;;;;;;;8.89;69.34;103308.72;5057029;28;20049;-64
2024/01/31 07:15:44;;;;;;;13.40;8.75;;;;;;;8.89;69.28;103314.09;5062111;28;20049;-63
2024/01/31 07:18:13;;;;;;;21.63;10.20;;;;;;;8.89;69.03;103322.13;5063275;28;20118;-61
2024/01/31 07:20:41;;;;;;;15.65;9.82;;;;;;;8.89;68.68;103337.38;5054552;28;20451;-61
2024/01/31 07:23:09;;;;;;;19.52;10.10;;;;;;;8.89;68.54;103353.47;5057875;28;20143;-62
2024/01/31 07:25:39;;;;;;;19.40;10.77;;;;;;;8.88;68.87;103357.13;5063117;28;20045;-64
2024/01/31 07:28:07;;;;;;;24.88;11.30;;;;;;;8.86;68.96;103362.66;5063797;28;20109;-63
2024/01/31 07:30:35;;;;;;;21.15;10.23;;;;;;;8.86;69.02;103361.81;5059694;28;20049;-64
2024/01/31 07:33:03;;;;;;;17.92;8.82;;;;;;;8.86;69.34;103372.53;5062641;28;20057;-63
2024/01/31 07:35:32;;;;;;;17.77;10.00;;;;;;;8.86;68.83;103375.22;5054771;28;20041;-63
2024/01/31 07:38:00;;;;;;;18.55;10.45;;;;;;;8.86;68.78;103380.59;5062455;28;20360;-63
2024/01/31 07:40:28;;;;;;;18.85;9.65;;;;;;;8.85;69.17;103382.41;5062344;28;20044;-63
2024/01/31 07:42:56;;;;;;;23.35;11.13;;;;;;;8.82;68.89;103377.34;5060242;28;20049;-63
2024/01/31 07:45:27;;;;;;;21.23;10.25;;;;;;;8.84;69.26;103380.72;5063136;28;20040;-63
2024/01/31 07:47:56;;;;;;;19.27;11.05;;;;;;;8.84;68.79;103380.72;5062685;28;20098;-64
2024/01/31 07:50:24;;;;;;;16.33;9.52;;;;;;;8.84;69.34;103390.59;5059754;28;20049;-63
2024/01/31 07:52:53;;;;;;;21.25;10.23;;;;;;;8.75;69.30;103363.69;5061074;28;20060;-64
2024/01/31 07:55:21;;;;;;;17.10;9.82;;;;;;;8.84;68.81;103379.88;5061087;28;20053;-64
2024/01/31 07:57:49;;;;;;;17.80;9.18;;;;;;;8.82;69.21;103380.88;5062987;28;20049;-63
2024/01/31 08:00:18;;;;;;;14.63;9.60;;;;;;;8.82;68.67;103375.50;5051603;28;20060;-64
2024/01/31 08:02:46;;;;;;;16.13;9.40;;;;;;;8.84;69.32;103382.56;5061676;28;20073;-63
2024/01/31 08:05:14;;;;;;;19.42;10.45;;;;;;;8.84;69.09;103380.72;5062025;28;20049;-64
2024/01/31 08:07:44;;;;;;;16.73;9.85;;;;;;;8.82;69.35;103378.19;5061361;28;20053;-64
2024/01/31 08:10:14;;;;;;;18.55;10.52;;;;;;;8.82;69.45;103380.88;5063142;28;20518;-64
2024/01/31 08:12:44;;;;;;;19.45;9.98;;;;;;;8.83;69.48;103376.34;5062422;28;20072;-63
2024/01/31 08:15:12;;;;;;;18.50;9.77;;;;;;;8.84;68.66;103378.06;5062842;28;20048;-62
2024/01/31 08:17:40;;;;;;;17.77;10.35;;;;;;;8.84;68.64;103369.16;5056840;28;20053;-63
2024/01/31 08:20:09;;;;;;;21.85;11.13;;;;;;;8.84;69.17;103367.31;5066574;28;20079;-63
2024/01/31 08:22:37;;;;;;;20.83;10.60;;;;;;;8.84;68.98;103359.28;5066383;28;20085;-63
2024/01/31 08:25:08;;;;;;;14.75;9.30;;;;;;;8.83;68.98;103368.31;5064508;28;20354;-63
2024/01/31 08:27:37;;;;;;;18.73;10.68;;;;;;;8.81;69.44;103375.66;5063162;28;20049;-63
2024/01/31 08:30:07;;;;;;;20.67;10.48;;;;;;;8.85;69.01;103374.38;5067309;28;20548;-62
2024/01/31 08:32:35;;;;;;;24.05;11.82;;;;;;;8.85;68.85;103360.97;5053311;28;20052;-63
2024/01/31 08:35:03;;;;;;;18.17;10.07;;;;;;;8.85;69.38;103366.31;5064379;28;20083;-63
2024/01/31 08:37:31;;;;;;;22.83;10.57;;;;;;;8.85;68.83;103373.53;5063198;28;20052;-63
2024/01/31 08:39:59;;;;;;;21.58;10.13;;;;;;;8.85;68.80;103362.81;5066710;28;20045;-63
2024/01/31 08:42:28;;;;;;;18.05;10.52;;;;;;;8.85;69.54;103360.97;5059740;28;20053;-61
2024/01/31 08:44:58;;;;;;;16.70;10.35;;;;;;;8.85;68.85;103358.28;5062010;28;20474;-63
2024/01/31 08:47:26;;;;;;;20.55;10.35;;;;;;;8.85;69.45;103350.25;5054931;28;20053;-63
2024/01/31 08:49:54;;;;;;;21.35;11.32;;;;;;;8.85;69.16;103354.75;5066335;28;20084;-63
2024/01/31 08:52:22;;;;;;;21.45;10.75;;;;;;;8.86;69.46;103338.53;5064170;28;20139;-63
2024/01/31 08:54:50;;;;;;;17.77;10.35;;;;;;;8.84;69.39;103335.13;5062432;28;20049;-63
2024/01/31 08:57:18;;;;;;;19.50;11.20;;;;;;;8.85;69.15;103342.19;5062426;28;20083;-64
2024/01/31 08:59:47;;;;;;;21.02;11.60;;;;;;;8.94;68.90;103335.94;5065456;28;20059;-63
2024/01/31 09:02:16;;;;;;;20.15;11.23;;;;;;;9.08;68.66;103339.94;5065079;28;20408;-64
2024/01/31 09:04:44;;;;;;;18.00;11.02;;;;;;;9.23;67.95;103337.59;5066226;28;20053;-63
2024/01/31 09:07:12;;;;;;;18.55;11.45;;;;;;;9.39;67.61;103335.91;5063515;28;20049;-63
2024/01/31 09:09:40;;;;;;;23.50;12.82;;;;;;;9.55;66.77;103329.00;5065596;28;20045;-63
2024/01/31 09:12:08;;;;;;;22.02;12.27;;;;;;;9.73;66.40;103337.91;5066061;28;20053;-63
2024/01/31 09:14:36;;;;;;;20.65;11.55;;;;;;;9.86;65.71;103330.28;5065972;28;20045;-64
2024/01/31 09:17:04;;;;;;;18.42;11.40;;;;;;;9.98;65.57;103323.66;5063230;28;20068;-63
2024/01/31 09:19:33;;;;;;;18.77;11.05;;;;;;;10.15;64.83;103326.44;5060757;28;20049;-64
2024/01/31 09:22:02;;;;;;;20.92;11.73;;;;;;;10.29;64.33;103312.47;5065678;28;20144;-64
2024/01/31 09:24:30;;;;;;;19.23;10.98;;;;;;;10.40;64.07;103309.50;5065470;28;20041;-64
2024/01/31 09:26:58;;;;;;;21.67;11.75;;;;;;;10.53;63.56;103306.34;5063940;28;20042;-64
2024/01/31 09:29:26;;;;;;;23.65;13.38;;;;;;;10.54;63.48;103294.56;5054995;28;20111;-63
2024/01/31 09:31:53;;;;;;;18.83;11.90;;;;;;;10.63;63.16;103293.59;5065737;28;20049;-63
2024/01/31 09:34:21;;;;;;;18.08;11.63;;;;;;;10.63;63.17;103288.22;5064883;28;20132;-64
2024/01/31 09:36:51;;;;;;;22.10;12.57;;;;;;;10.73;63.04;103287.09;5064876;28;20106;-63
2024/01/31 09:39:18;;;;;;;19.95;12.07;;;;;;;10.74;63.13;103286.06;5060143;28;20057;-63
2024/01/31 09:41:48;;;;;;;18.98;12.52;;;;;;;10.75;63.05;103284.22;5065355;28;20091;-62
2024/01/31 09:44:17;;;;;;;22.70;13.20;;;;;;;10.77;62.83;103284.91;5061001;28;20514;-62
2024/01/31 09:46:47;;;;;;;19.90;11.55;;;;;;;10.77;62.88;103285.75;5063638;28;20053;-62
2024/01/31 09:49:15;;;;;;;21.70;12.93;;;;;;;10.78;62.77;103281.22;5061969;28;20525;-63
2024/01/31 09:51:43;;;;;;;22.55;12.73;;;;;;;10.79;63.04;103276.69;5064035;28;20061;-63
2024/01/31 09:54:14;;;;;;;22.38;12.93;;;;;;;10.82;62.99;103269.13;5061982;28;20082;-62
2024/01/31 09:56:42;;;;;;;22.15;12.25;;;;;;;10.86;62.71;103262.41;5064357;28;20053;-63
2024/01/31 09:59:10;;;;;;;20.58;12.25;;;;;;;10.90;62.56;103265.63;5061097;28;20037;-63
2024/01/31 10:01:40;;;;;;;20.83;12.30;;;;;;;10.86;62.76;103259.72;5065205;28;20139;-64
2024/01/31 10:04:08;;;;;;;21.65;13.15;;;;;;;10.80;62.93;103256.84;5063824;28;20056;-64
2024/01/31 10:06:36;;;;;;;23.27;12.55;;;;;;;10.65;63.55;103251.25;5058393;28;20109;-65
2024/01/31 10:09:06;;;;;;;23.25;13.15;;;;;;;10.48;63.96;103253.03;5055082;28;20592;-61
2024/01/31 10:11:35;;;;;;;21.02;12.32;;;;;;;10.30;64.57;103266.59;5059439;28;20053;-63
2024/01/31 10:14:03;;;;;;;20.58;12.15;;;;;;;10.15;65.15;103265.50;5059430;28;20080;-63
2024/01/31 10:16:31;;;;;;;22.48;13.00;;;;;;;10.06;65.71;103275.34;5063891;28;20049;-63
2024/01/31 10:18:59;;;;;;;19.27;12.43;;;;;;;9.98;65.81;103277.97;5060920;28;20072;-63
2024/01/31 10:21:27;;;;;;;20.95;11.65;;;;;;;9.90;66.25;103272.56;5061467;28;20106;-63
2024/01/31 10:23:59;;;;;;;21.20;12.75;;;;;;;9.85;66.39;103272.19;5060805;28;20102;-63
2024/01/31 10:26:27;;;;;;;16.80;11.25;;;;;;;9.80;66.31;103279.88;5061224;28;20053;-64
2024/01/31 10:29:00;;;;;;;23.48;12.38;;;;;;;9.74;66.88;103278.66;5062547;28;20108;-63
2024/01/31 10:31:37;;;;;;;19.38;11.65;;;;;;;9.70;66.95;103279.13;5061090;28;20079;-62
2024/01/31 10:34:08;;;;;;;21.70;12.75;;;;;;;9.81;66.38;103284.25;5057936;28;20048;-62
2024/01/31 10:36:37;;;;;;;20.30;11.98;;;;;;;9.95;65.89;103285.53;5062563;28;20081;-63
2024/01/31 10:39:10;;;;;;;19.30;11.50;;;;;;;10.09;65.35;103280.41;5059095;28;20087;-62
2024/01/31 10:41:41;;;;;;;18.05;11.02;;;;;;;10.25;64.87;103287.75;5063679;28;20055;-62
2024/01/31 10:44:13;;;;;;;20.02;11.73;;;;;;;10.40;64.40;103282.63;5062095;28;20506;-62
2024/01/31 10:46:42;;;;;;;19.55;11.30;;;;;;;10.56;63.78;103289.88;5062601;28;20081;-62
2024/01/31 10:49:13;;;;;;;15.00;10.27;;;;;;;10.72;63.08;103284.56;5060696;28;20071;-62
2024/01/31 10:51:43;;;;;;;17.65;10.95;;;;;;;10.84;62.64;103287.78;5061161;28;20045;-63
2024/01/31 10:54:13;;;;;;;18.00;10.05;;;;;;;10.88;62.34;103287.28;5061290;28;20276;-63
2024/01/31 10:56:42;;;;;;;16.85;10.23;;;;;;;10.80;62.60;103289.97;5061875;28;20482;-63
2024/01/31 10:59:12;;;;;;;17.88;9.80;;;;;;;10.66;62.86;103282.53;5062851;28;20041;-63
2024/01/31 11:01:50;;;;;;;17.02;11.07;;;;;;;10.47;63.45;103277.41;5060631;28;20471;-62
2024/01/31 11:04:18;;;;;;;15.25;9.57;;;;;;;10.34;64.00;103272.50;5059306;28;20049;-61
2024/01/31 11:06:50;;;;;;;17.60;10.73;;;;;;;10.22;64.26;103265.72;5062495;28;20049;-62
2024/01/31 11:09:19;;;;;;;16.35;10.52;;;;;;;10.10;64.60;103271.34;5058792;28;20056;-62
2024/01/31 11:11:47;;;;;;;15.95;9.70;;;;;;;10.05;64.72;103264.75;5061917;28;20056;-61
2024/01/31 11:14:16;;;;;;;16.98;9.70;;;;;;;10.00;65.03;103269.78;5062785;28;20079;-62
2024/01/31 11:16:44;;;;;;;16.42;10.90;;;;;;;9.95;64.93;103264.03;5053784;28;20045;-62
2024/01/31 11:19:19;;;;;;;16.77;9.63;;;;;;;9.88;65.09;103252.22;5056692;28;20078;-63
2024/01/31 11:21:48;;;;;;;19.02;11.35;;;;;;;9.80;64.60;103250.34;5063832;28;20049;-62
2024/01/31 11:24:16;;;;;;;17.88;10.88;;;;;;;9.76;64.90;103238.22;5061603;28;20115;-61
2024/01/31 11:26:44;;;;;;;16.98;10.32;;;;;;;9.73;64.68;103234.00;5064133;28;20056;-63